createdAt,value
2023-11-30T00:01:05.570Z,98944.60
2023-11-30T00:03:45.498Z,98943.00
2023-11-30T00:06:19.234Z,98946.20
2023-11-30T00:08:55.514Z,98940.40
2023-11-30T00:11:29.457Z,98944.40
2023-11-30T00:14:03.431Z,98941.80
2023-11-30T00:16:37.048Z,98945.80
2023-11-30T00:19:12.045Z,98947.40
2023-11-30T00:22:01.412Z,98947.40
2023-11-30T00:24:36.471Z,98948.20
2023-11-30T00:27:17.164Z,98947.40
2023-11-30T00:29:52.639Z,98942.80
2023-11-30T00:32:37.026Z,98942.60
2023-11-30T00:35:20.709Z,98938.20
2023-11-30T00:37:59.299Z,98946.40
2023-11-30T00:40:41.950Z,98950.20
2023-11-30T00:43:26.640Z,98952.00
2023-11-30T00:46:20.428Z,98947.40
2023-11-30T00:48:58.005Z,98948.40
2023-11-30T00:51:32.119Z,98944.20
2023-11-30T00:54:21.742Z,98950.60
2023-11-30T00:57:03.431Z,98952.20
2023-11-30T00:59:56.050Z,98953.40
2023-11-30T01:02:32.239Z,98958.20
2023-11-30T01:05:23.966Z,98958.20
2023-11-30T01:08:04.412Z,98964.80
2023-11-30T01:13:27.145Z,98963.60
2023-11-30T01:16:03.612Z,98960.80
2023-11-30T01:18:37.714Z,98960.60
2023-11-30T01:21:12.839Z,98961.20
2023-11-30T01:23:46.824Z,98958.80
2023-11-30T01:26:23.226Z,98961.60
2023-11-30T01:28:57.873Z,98962.60
2023-11-30T01:31:33.676Z,98960.00
2023-11-30T01:34:10.116Z,98957.80
2023-11-30T01:36:43.985Z,98966.80
2023-11-30T01:39:18.530Z,98969.00
2023-11-30T01:41:53.152Z,98963.60
2023-11-30T01:44:29.447Z,98963.80
2023-11-30T01:47:05.836Z,98963.80
2023-11-30T01:49:40.216Z,98963.00
2023-11-30T01:52:27.163Z,98964.60
2023-11-30T01:55:24.260Z,98961.00
2023-11-30T01:58:01.461Z,98956.20
2023-11-30T02:00:41.680Z,98951.60
2023-11-30T02:03:23.354Z,98951.40
2023-11-30T02:06:00.780Z,98955.20
2023-11-30T02:08:37.962Z,98954.80
2023-11-30T02:11:30.561Z,98960.00
2023-11-30T02:14:11.485Z,98960.40
2023-11-30T02:16:45.794Z,98955.80
2023-11-30T02:19:19.674Z,98963.20
2023-11-30T02:21:55.524Z,98960.80
2023-11-30T02:24:31.648Z,98959.20
2023-11-30T02:27:05.635Z,98960.20
2023-11-30T02:29:39.554Z,98960.40
2023-11-30T02:32:14.367Z,98961.20
2023-11-30T02:34:48.200Z,98957.40
2023-11-30T02:37:22.499Z,98957.60
2023-11-30T02:39:56.717Z,98957.40
2023-11-30T02:42:30.608Z,98952.60
2023-11-30T02:45:04.625Z,98953.20
2023-11-30T02:47:39.493Z,98954.00
2023-11-30T02:50:15.286Z,98956.60
2023-11-30T02:52:49.732Z,98962.80
2023-11-30T02:55:24.035Z,98964.00
2023-11-30T02:57:57.868Z,98967.20
2023-11-30T03:00:31.840Z,98967.40
2023-11-30T03:03:05.728Z,98968.40
2023-11-30T03:05:39.453Z,98967.60
2023-11-30T03:08:13.087Z,98965.20
2023-11-30T03:10:47.736Z,98963.60
2023-11-30T03:13:21.603Z,98964.60
2023-11-30T03:15:56.277Z,98962.60
2023-11-30T03:18:31.021Z,98959.00
2023-11-30T03:21:18.693Z,98958.60
2023-11-30T03:23:55.795Z,98959.20
2023-11-30T03:26:29.953Z,98964.40
2023-11-30T03:29:03.676Z,98965.00
2023-11-30T03:31:40.370Z,98962.80
2023-11-30T03:34:14.654Z,98960.20
2023-11-30T03:36:48.566Z,98958.00
2023-11-30T03:39:22.281Z,98958.80
2023-11-30T03:41:56.579Z,98956.60
2023-11-30T03:44:30.725Z,98961.00
2023-11-30T03:47:05.148Z,98965.80
2023-11-30T03:49:47.138Z,98959.00
2023-11-30T03:52:20.896Z,98960.40
2023-11-30T03:54:54.575Z,98959.20
2023-11-30T03:57:28.801Z,98960.40
2023-11-30T04:00:03.017Z,98962.00
2023-11-30T04:02:38.654Z,98963.20
2023-11-30T04:05:14.664Z,98963.40
2023-11-30T04:07:49.288Z,98960.20
2023-11-30T04:10:27.124Z,98956.20
2023-11-30T04:13:01.206Z,98964.40
2023-11-30T04:15:34.926Z,98963.60
2023-11-30T04:18:08.770Z,98958.80
2023-11-30T04:20:42.695Z,98956.20
2023-11-30T04:23:16.635Z,98958.80
2023-11-30T04:25:50.556Z,98959.20
2023-11-30T04:28:24.569Z,98959.60
2023-11-30T04:30:58.989Z,98954.60
2023-11-30T04:33:33.140Z,98959.80
2023-11-30T04:36:12.390Z,98959.00
2023-11-30T04:38:46.325Z,98962.00
2023-11-30T04:41:21.205Z,98950.80
2023-11-30T04:43:55.070Z,98946.80
2023-11-30T04:46:29.341Z,98946.40
2023-11-30T04:49:06.979Z,98943.40
2023-11-30T04:51:43.757Z,98941.00
2023-11-30T04:54:17.633Z,98943.20
2023-11-30T04:56:51.526Z,98941.20
2023-11-30T04:59:25.919Z,98941.00
2023-11-30T05:02:00.152Z,98939.60
2023-11-30T05:04:34.311Z,98940.20
2023-11-30T05:07:09.154Z,98938.80
2023-11-30T05:09:48.832Z,98937.60
2023-11-30T05:12:23.846Z,98936.80
2023-11-30T05:15:03.389Z,98936.00
2023-11-30T05:17:38.033Z,98938.60
2023-11-30T05:20:14.196Z,98936.60
2023-11-30T05:22:48.014Z,98939.60
2023-11-30T05:25:22.135Z,98934.80
2023-11-30T05:27:55.934Z,98938.00
2023-11-30T05:30:30.432Z,98934.80
2023-11-30T05:33:35.709Z,98935.80
2023-11-30T05:36:13.269Z,98933.20
2023-11-30T05:39:04.945Z,98935.40
2023-11-30T05:41:54.412Z,98938.60
2023-11-30T05:45:36.934Z,98940.20
2023-11-30T05:48:13.984Z,98939.40
2023-11-30T05:50:49.761Z,98935.00
2023-11-30T05:53:23.805Z,98934.60
2023-11-30T05:55:57.667Z,98939.80
2023-11-30T05:58:31.738Z,98945.00
2023-11-30T06:01:06.138Z,98945.80
2023-11-30T06:03:42.155Z,98957.80
2023-11-30T06:06:18.092Z,98959.60
2023-11-30T06:08:54.253Z,98959.80
2023-11-30T06:11:29.765Z,98964.00
2023-11-30T06:14:05.703Z,98964.00
2023-11-30T06:16:39.777Z,98962.60
2023-11-30T06:19:14.053Z,98963.40
2023-11-30T06:21:48.134Z,98971.20
2023-11-30T06:24:27.828Z,98970.20
2023-11-30T06:27:03.986Z,98966.60
2023-11-30T06:29:38.234Z,98970.20
2023-11-30T06:32:12.709Z,98974.60
2023-11-30T06:34:47.586Z,98974.80
2023-11-30T06:37:22.338Z,98975.00
2023-11-30T06:39:56.450Z,98973.80
2023-11-30T06:42:31.032Z,98972.80
2023-11-30T06:45:05.297Z,98978.40
2023-11-30T06:47:39.494Z,98977.80
2023-11-30T06:50:15.058Z,98981.40
2023-11-30T06:52:49.033Z,98979.00
2023-11-30T06:55:25.535Z,98977.40
2023-11-30T06:58:00.255Z,98976.60
2023-11-30T07:00:35.755Z,98975.40
2023-11-30T07:03:10.792Z,98970.60
2023-11-30T07:05:47.211Z,98968.60
2023-11-30T07:08:21.416Z,98969.20
2023-11-30T07:10:55.675Z,98965.60
2023-11-30T07:13:29.354Z,98963.80
2023-11-30T07:16:03.482Z,98962.60
2023-11-30T07:18:37.966Z,98961.20
2023-11-30T07:21:17.812Z,98961.80
2023-11-30T07:23:51.541Z,98969.00
2023-11-30T07:26:27.909Z,98966.00
2023-11-30T07:29:01.756Z,98966.40
2023-11-30T07:31:36.036Z,98965.00
2023-11-30T07:34:10.308Z,98968.80
2023-11-30T07:36:44.711Z,98964.00
2023-11-30T07:39:18.708Z,98966.80
2023-11-30T07:41:52.509Z,98972.40
2023-11-30T07:44:29.251Z,98968.60
2023-11-30T07:47:22.797Z,98972.80
2023-11-30T07:49:56.748Z,98976.60
2023-11-30T07:52:32.502Z,98980.20
2023-11-30T07:55:06.613Z,98975.60
2023-11-30T07:57:40.412Z,98974.20
2023-11-30T08:00:17.659Z,98978.60
2023-11-30T08:02:51.362Z,98979.00
2023-11-30T08:05:26.315Z,98983.80
2023-11-30T08:08:00.029Z,98983.40
2023-11-30T08:10:35.685Z,98972.00
2023-11-30T08:13:14.690Z,98971.80
2023-11-30T08:15:49.758Z,98974.40
2023-11-30T08:18:26.053Z,98980.60
2023-11-30T08:21:03.473Z,98984.80
2023-11-30T08:23:38.846Z,98980.00
2023-11-30T08:26:13.472Z,98984.40
2023-11-30T08:28:50.731Z,98983.80
2023-11-30T08:31:24.657Z,98977.00
2023-11-30T08:33:58.354Z,98984.40
2023-11-30T08:36:32.309Z,98989.80
2023-11-30T08:39:08.357Z,98983.60
2023-11-30T08:41:46.081Z,98987.40
2023-11-30T08:44:19.851Z,98994.20
2023-11-30T08:46:54.388Z,98993.20
2023-11-30T08:49:30.663Z,99000.40
2023-11-30T08:52:04.384Z,98995.00
2023-11-30T08:54:39.783Z,98997.40
2023-11-30T08:57:14.398Z,99001.00
2023-11-30T08:59:49.643Z,99004.40
2023-11-30T09:02:25.838Z,99002.20
2023-11-30T09:04:59.850Z,99002.20
2023-11-30T09:07:33.671Z,98997.40
2023-11-30T09:10:15.424Z,99003.20
2023-11-30T09:12:49.457Z,99006.20
2023-11-30T09:15:26.526Z,99008.80
2023-11-30T09:18:03.244Z,99010.20
2023-11-30T09:20:39.902Z,99002.00
2023-11-30T09:23:14.153Z,98999.20
2023-11-30T09:25:47.941Z,98999.00
2023-11-30T09:28:22.459Z,98997.40
2023-11-30T09:30:57.611Z,98990.80
2023-11-30T09:33:33.692Z,98990.20
2023-11-30T09:36:09.284Z,98995.40
2023-11-30T09:38:43.259Z,98990.60
2023-11-30T09:41:22.385Z,98983.80
2023-11-30T09:43:59.094Z,98970.00
2023-11-30T09:46:50.352Z,98973.60
2023-11-30T09:49:24.634Z,98963.40
2023-11-30T09:51:59.014Z,98956.20
2023-11-30T09:54:33.008Z,98958.60
2023-11-30T09:57:07.177Z,98958.80
2023-11-30T09:59:40.936Z,98951.80
2023-11-30T10:02:15.826Z,98947.00
2023-11-30T10:04:49.912Z,98949.00
2023-11-30T10:07:24.128Z,98953.80
2023-11-30T10:10:00.217Z,98950.20
2023-11-30T10:12:34.316Z,98950.40
2023-11-30T10:15:10.775Z,98945.80
2023-11-30T10:17:45.014Z,98942.20
2023-11-30T10:20:19.854Z,98937.80
2023-11-30T10:22:53.695Z,98930.80
2023-11-30T10:25:30.397Z,98926.60
2023-11-30T10:28:08.095Z,98933.00
2023-11-30T10:30:46.511Z,98927.00
2023-11-30T10:33:27.209Z,98923.20
2023-11-30T10:36:05.497Z,98912.20
2023-11-30T10:38:43.499Z,98917.80
2023-11-30T10:41:29.203Z,98920.20
2023-11-30T10:44:06.323Z,98923.60
2023-11-30T10:46:55.197Z,98920.20
2023-11-30T10:49:33.219Z,98929.20
2023-11-30T10:52:09.796Z,98927.60
2023-11-30T10:54:54.762Z,98926.80
2023-11-30T10:57:29.487Z,98928.00
2023-11-30T11:00:06.890Z,98936.60
2023-11-30T11:02:48.118Z,98937.60
2023-11-30T11:05:38.681Z,98937.60
2023-11-30T11:08:14.026Z,98937.20
2023-11-30T11:10:52.550Z,98936.60
2023-11-30T11:13:30.374Z,98932.00
2023-11-30T11:16:07.693Z,98929.00
2023-11-30T11:18:46.859Z,98931.80
2023-11-30T11:21:35.661Z,98935.60
2023-11-30T11:24:11.504Z,98927.20
2023-11-30T11:26:50.735Z,98925.60
2023-11-30T11:29:30.888Z,98924.40
2023-11-30T11:32:10.686Z,98930.60
2023-11-30T11:34:44.812Z,98920.00
2023-11-30T11:37:20.704Z,98871.80
2023-11-30T11:39:56.328Z,98876.60
2023-11-30T11:42:30.588Z,98871.80
2023-11-30T11:45:08.290Z,98880.40
2023-11-30T11:47:44.916Z,98869.40
2023-11-30T11:50:22.123Z,98865.40
2023-11-30T11:53:02.545Z,98905.60
2023-11-30T11:55:36.579Z,98908.40
2023-11-30T11:58:15.317Z,98902.40
2023-11-30T12:00:58.441Z,98896.00
2023-11-30T12:03:33.023Z,98889.00
2023-11-30T12:06:07.531Z,98865.20
2023-11-30T12:08:44.207Z,98887.60
2023-11-30T12:11:21.014Z,98884.80
2023-11-30T12:14:01.237Z,98886.40
2023-11-30T12:16:39.938Z,98882.00
2023-11-30T12:19:19.808Z,98872.40
2023-11-30T12:21:54.761Z,98860.40
2023-11-30T12:25:12.139Z,98854.20
2023-11-30T12:27:49.750Z,98852.00
2023-11-30T12:30:25.044Z,98849.80
2023-11-30T12:32:59.902Z,98846.60
2023-11-30T12:35:35.008Z,98843.40
2023-11-30T12:38:09.919Z,98845.80
2023-11-30T12:40:44.424Z,98846.60
2023-11-30T12:43:18.339Z,98863.60
2023-11-30T12:45:53.059Z,98859.60
2023-11-30T12:48:28.017Z,98852.60
2023-11-30T12:51:01.938Z,98860.60
2023-11-30T12:53:40.847Z,98860.80
2023-11-30T12:56:16.282Z,98861.20
2023-11-30T12:58:51.467Z,98866.60
2023-11-30T13:01:25.738Z,98867.00
2023-11-30T13:04:01.804Z,98869.20
2023-11-30T13:06:36.645Z,98864.20
2023-11-30T13:09:11.372Z,98863.40
2023-11-30T13:11:47.097Z,98863.60
2023-11-30T13:14:21.197Z,98873.40
2023-11-30T13:17:06.764Z,98865.60
2023-11-30T13:19:42.197Z,98864.60
2023-11-30T13:22:17.641Z,98868.20
2023-11-30T13:24:52.952Z,98863.00
2023-11-30T13:27:26.841Z,98858.60
2023-11-30T13:30:01.127Z,98853.40
2023-11-30T13:32:36.821Z,98852.00
2023-11-30T13:35:12.057Z,98861.40
2023-11-30T13:37:45.534Z,98863.20
2023-11-30T13:40:20.883Z,98863.60
2023-11-30T13:42:55.281Z,98862.00
2023-11-30T13:45:29.182Z,98859.00
2023-11-30T13:48:04.984Z,98869.00
2023-11-30T13:51:00.855Z,98873.00
2023-11-30T13:53:37.491Z,98876.60
2023-11-30T13:56:13.427Z,98871.40
2023-11-30T13:58:47.111Z,98872.20
2023-11-30T14:01:20.945Z,98868.20
2023-11-30T14:03:54.798Z,98868.00
2023-11-30T14:06:28.901Z,98867.00
2023-11-30T14:09:08.886Z,98855.60
2023-11-30T14:11:42.790Z,98850.60
2023-11-30T14:14:16.974Z,98848.20
2023-11-30T14:16:50.777Z,98845.00
2023-11-30T14:19:24.446Z,98848.60
2023-11-30T14:21:58.598Z,98860.40
2023-11-30T14:24:32.547Z,98862.20
2023-11-30T14:27:07.243Z,98866.20
2023-11-30T14:29:41.243Z,98853.40
2023-11-30T14:32:15.661Z,98850.40
2023-11-30T14:34:49.506Z,98848.40
2023-11-30T14:37:24.039Z,98849.40
2023-11-30T14:39:58.162Z,98851.20
2023-11-30T14:42:33.160Z,98850.40
2023-11-30T14:45:11.631Z,98853.00
2023-11-30T14:47:48.549Z,98858.20
2023-11-30T14:50:22.719Z,98857.00
2023-11-30T14:52:58.743Z,98848.20
2023-11-30T14:55:59.316Z,98846.80
2023-11-30T14:58:36.805Z,98847.40
2023-11-30T15:01:13.465Z,98849.80
2023-11-30T15:03:52.648Z,98851.00
2023-11-30T15:06:34.310Z,98840.20
2023-11-30T15:09:12.811Z,98843.20
2023-11-30T15:15:55.968Z,98853.00
2023-11-30T15:18:32.009Z,98850.80
2023-11-30T15:21:06.014Z,98863.60
2023-11-30T15:23:40.164Z,98862.80
2023-11-30T15:26:18.121Z,98858.20
2023-11-30T15:28:51.794Z,98858.00
2023-11-30T15:31:28.316Z,98857.80
2023-11-30T15:34:02.129Z,98851.60
2023-11-30T15:36:36.663Z,98857.20
2023-11-30T15:39:16.856Z,98853.80
2023-11-30T15:41:52.058Z,98853.00
2023-11-30T15:44:26.064Z,98847.40
2023-11-30T15:47:00.871Z,98846.20
2023-11-30T15:49:35.589Z,98848.20
2023-11-30T15:52:10.158Z,98848.60
2023-11-30T15:54:46.345Z,98842.40
2023-11-30T15:57:29.568Z,98840.80
2023-11-30T16:00:07.855Z,98842.00
2023-11-30T16:02:50.226Z,98844.20
2023-11-30T16:05:24.703Z,98848.00
2023-11-30T16:07:58.948Z,98861.00
2023-11-30T16:10:33.233Z,98866.40
2023-11-30T16:13:08.075Z,98863.20
2023-11-30T16:15:42.437Z,98856.60
2023-11-30T16:18:17.284Z,98855.80
2023-11-30T16:20:51.567Z,98853.80
2023-11-30T16:23:25.628Z,98859.40
2023-11-30T16:26:03.475Z,98863.60
2023-11-30T16:28:41.184Z,98863.60
2023-11-30T16:31:16.452Z,98861.40
2023-11-30T16:33:53.589Z,98860.20
2023-11-30T16:36:28.383Z,98867.00
2023-11-30T16:39:14.401Z,98866.40
2023-11-30T16:41:53.903Z,98868.20
2023-11-30T16:44:28.758Z,98880.60
2023-11-30T16:47:05.443Z,98876.40
2023-11-30T16:49:45.657Z,98872.40
2023-11-30T16:52:20.761Z,98875.80
2023-11-30T16:54:55.097Z,98879.00
2023-11-30T16:57:33.522Z,98882.80
2023-11-30T17:00:10.121Z,98875.60
2023-11-30T17:02:44.390Z,98872.60
2023-11-30T17:05:18.966Z,98870.00
2023-11-30T17:07:55.228Z,98868.00
2023-11-30T17:10:34.738Z,98864.40
2023-11-30T17:13:14.411Z,98865.40
2023-11-30T17:15:48.820Z,98858.60
2023-11-30T17:18:23.705Z,98858.40
2023-11-30T17:21:02.737Z,98863.20
2023-11-30T17:23:39.047Z,98864.00
2023-11-30T17:26:16.218Z,98855.80
2023-11-30T17:28:50.536Z,98851.40
2023-11-30T17:31:28.616Z,98848.80
2023-11-30T17:34:05.092Z,98845.20
2023-11-30T17:36:44.469Z,98841.80
2023-11-30T17:39:19.175Z,98838.40
2023-11-30T17:41:59.490Z,98842.20
2023-11-30T17:44:36.064Z,98846.60
2023-11-30T17:47:10.292Z,98844.60
2023-11-30T17:49:44.126Z,98852.60
2023-11-30T17:52:17.897Z,98843.80
2023-11-30T17:54:54.614Z,98846.60
2023-11-30T17:57:32.755Z,98843.00
2023-11-30T18:00:08.161Z,98841.00
2023-11-30T18:02:55.418Z,98838.80
2023-11-30T18:05:32.574Z,98832.20
2023-11-30T18:08:09.131Z,98832.60
2023-11-30T18:14:21.546Z,98830.20
2023-11-30T18:16:56.230Z,98822.20
2023-11-30T18:19:30.102Z,98825.60
2023-11-30T18:22:14.662Z,98825.20
2023-11-30T18:24:52.859Z,98812.80
2023-11-30T18:33:47.278Z,98805.80
2023-11-30T18:36:21.935Z,98803.80
2023-11-30T18:39:20.533Z,98799.60
2023-11-30T18:43:23.673Z,98798.60
2023-11-30T18:46:16.604Z,98793.40
2023-11-30T18:48:52.471Z,98787.00
2023-11-30T18:51:31.574Z,98783.20
2023-11-30T18:54:08.582Z,98790.60
2023-11-30T18:56:47.977Z,98797.80
2023-11-30T18:59:56.507Z,98804.60
2023-11-30T19:02:38.504Z,98807.40
2023-11-30T19:05:16.984Z,98808.20
2023-11-30T19:07:54.177Z,98805.00
2023-11-30T19:11:28.519Z,98800.60
2023-11-30T19:15:19.014Z,98810.60
2023-11-30T19:17:55.489Z,98809.60
2023-11-30T19:20:38.949Z,98812.20
2023-11-30T19:23:12.906Z,98814.80
2023-11-30T19:25:48.215Z,98807.80
2023-11-30T19:28:41.296Z,98804.40
2023-11-30T19:31:17.616Z,98800.40
2023-11-30T19:34:15.789Z,98802.00
2023-11-30T19:37:00.319Z,98801.80
2023-11-30T19:39:52.021Z,98802.20
2023-11-30T19:42:35.935Z,98802.00
2023-11-30T19:45:13.353Z,98803.80
2023-11-30T19:47:53.583Z,98796.80
2023-11-30T19:50:29.326Z,98786.20
2023-11-30T19:53:08.387Z,98785.80
2023-11-30T19:55:48.176Z,98782.60
2023-11-30T19:58:22.421Z,98783.20
2023-11-30T20:00:57.322Z,98781.00
2023-11-30T20:03:38.222Z,98775.20
2023-11-30T20:06:19.806Z,98765.40
2023-11-30T20:08:54.699Z,98780.20
2023-11-30T20:11:28.969Z,98787.40
2023-11-30T20:14:06.059Z,98781.60
2023-11-30T20:16:46.165Z,98773.20
2023-11-30T20:19:24.399Z,98780.00
2023-11-30T20:21:58.544Z,98791.60
2023-11-30T20:24:35.500Z,98787.20
2023-11-30T20:27:13.114Z,98786.00
2023-11-30T20:29:50.673Z,98783.80
2023-11-30T20:32:27.662Z,98797.40
2023-11-30T20:35:08.128Z,98800.40
2023-11-30T20:37:47.958Z,98802.80
2023-11-30T20:40:22.322Z,98812.60
2023-11-30T20:42:56.237Z,98818.80
2023-11-30T20:45:30.245Z,98820.80
2023-11-30T20:48:04.098Z,98820.80
2023-11-30T20:50:38.328Z,98822.20
2023-11-30T20:53:13.256Z,98816.80
2023-11-30T20:55:48.012Z,98819.00
2023-11-30T20:58:22.108Z,98808.20
2023-11-30T21:00:56.232Z,98815.00
2023-11-30T21:12:50.424Z,98817.40
2023-11-30T21:15:43.001Z,98826.20
2023-11-30T21:18:18.727Z,98824.80
2023-11-30T21:20:54.015Z,98821.80
2023-11-30T21:23:29.326Z,98834.80
2023-11-30T21:26:04.958Z,98832.00
2023-11-30T21:28:40.113Z,98828.00
2023-11-30T21:31:16.000Z,98821.20
2023-11-30T21:33:51.615Z,98817.00
2023-11-30T21:36:27.505Z,98813.60
2023-11-30T21:39:02.833Z,98814.20
2023-11-30T21:41:37.923Z,98814.80
2023-11-30T21:44:13.291Z,98810.20
2023-11-30T21:46:58.705Z,98814.20
2023-11-30T21:49:33.845Z,98817.60
2023-11-30T21:52:11.155Z,98821.40
2023-11-30T21:54:49.444Z,98818.80
2023-11-30T21:57:24.676Z,98827.40
2023-11-30T21:59:59.793Z,98831.80
2023-11-30T22:02:35.289Z,98831.80
2023-11-30T22:05:12.209Z,98830.80
2023-11-30T22:07:50.981Z,98830.40
2023-11-30T22:10:26.251Z,98828.80
2023-11-30T22:13:01.333Z,98826.00
2023-11-30T22:15:36.856Z,98828.60
2023-11-30T22:18:12.035Z,98819.80
2023-11-30T22:20:50.965Z,98819.00
2023-11-30T22:23:31.866Z,98808.60
2023-11-30T22:26:07.119Z,98820.60
2023-11-30T22:28:42.181Z,98825.00
2023-11-30T22:31:22.020Z,98827.40
2023-11-30T22:33:57.199Z,98826.00
2023-11-30T22:36:32.100Z,98820.20
2023-11-30T22:39:08.392Z,98816.60
2023-11-30T22:41:45.058Z,98814.60
2023-11-30T22:44:20.314Z,98825.80
2023-11-30T22:46:55.344Z,98819.80
2023-11-30T22:49:31.951Z,98821.40
2023-11-30T22:52:08.163Z,98815.80
2023-11-30T22:54:43.340Z,98805.20
2023-11-30T22:57:18.483Z,98791.60
2023-11-30T22:59:53.699Z,98801.60
2023-11-30T23:02:30.001Z,98807.80
2023-11-30T23:05:07.228Z,98808.60
2023-11-30T23:07:42.227Z,98806.60
2023-11-30T23:10:18.832Z,98816.40
2023-11-30T23:12:54.264Z,98804.00
2023-11-30T23:15:29.485Z,98796.00
2023-11-30T23:18:04.291Z,98795.40
2023-11-30T23:20:39.706Z,98805.00
2023-11-30T23:23:14.948Z,98806.40
2023-11-30T23:25:49.921Z,98808.40
2023-11-30T23:28:25.525Z,98813.80
2023-11-30T23:31:02.131Z,98802.20
2023-11-30T23:33:39.097Z,98791.40
2023-11-30T23:36:16.095Z,98802.60
2023-11-30T23:38:52.448Z,98805.40
2023-11-30T23:41:27.276Z,98813.00
2023-11-30T23:44:02.440Z,98815.60
2023-11-30T23:46:38.171Z,98820.20
2023-11-30T23:49:13.263Z,98822.40
2023-11-30T23:51:49.082Z,98825.20
2023-11-30T23:54:24.045Z,98823.40
2023-11-30T23:56:58.960Z,98813.40
2023-11-30T23:59:33.918Z,98814.60
